Terminal Aerodrome Forecast
Issued by NWS

Home | Current Version | Previous Version | Text Only | Print | Product List | Glossary Off
Versions: 1 2 3 4 5 6 7 8 9 10 11 12 13 14 15 16

000
FTUS43 KUNR 101100
TAFGCC
TAF
KGCC 101120Z 1012/1112 23008KT P6SM SCT100
     FM101800 34010KT P6SM BKN250
      TEMPO 1021/1101 TSRA BKN060CB=

USA.gov is the U.S. government's official web portal to all federal, state and local government web resources and services.